Airport View

Enter AWOS ICAO identifier for current METAR.

ex. KFNL

KSLN 120453Z 17016G29KT 10SM CLR 07/00 A3006 RMK AO2 PK WND 17029/0446 SLP184 T00720000

12 Dec 2019 05:36

Phone: 785-823-3402

Other Area AWOS: KFRI - KHUT - KCNK - KEWK

TAF KSLN 112320Z 1200/1224 17013G20KT P6SM SKC FM120200 17014G22KT P6SM FEW200 WS020/19045KT FM120400 17016G24KT P6SM BKN020 WS020/20050KT FM120900 19017G25KT P6SM OVC030 WS020/22045KT FM121500 21014KT P6SM SCT035